^^
Station Historical Data
Daily Summary for October 18, 2017 Units:  Both    English   Metric
« Previous Day
Next Day »
Daily Weekly Monthly Yearly Custom
  High: Low: Average:
Temperature: TemperatureF °F /  -17.8 °C 54.9 °F /  12.7 °C 72.6 °F /  22.6 °C
Dew Point: DewpointF °F /  -17.8 °C 7.0 °F /  -13.9 °C 17.7 °F /  -7.9 °C
Humidity: Humidity% 5% 15%
Wind Speed: WindSpeedMPHmph /  0km/h - 2.3mph /  3.7km/h
Wind Gust: WindSpeedGustMPHmph /  0km/h - -
Wind- - WSW
Pressure: PressureIn in /  0 hPa 29.65 in /  1003.9 hPa -
Precipitation: 0.00 in /  0 mm    
Historical Graphs
 
 
Tabular Data for October 18, 2017
Time Temperature Dew Point Pressure Wind Wind Speed Wind Gust Humidity Rainfall Rate (Hourly) solar Conditions
TemperatureF °F /  -17.8 °C DewpointF °F /  -17.8 °C PressureInin /  0hPa Calm     Humidity% HourlyPrecipInin /  0mm SolarRadiationWatts/m^2 W/m2 Conditions
00:03 64.9 °F /  18.3 °C 21.7 °F /  -5.7 °C 29.80in /  1009hPa ESE 0.9mph /  1.4km/h 1.0mph /  1.6km/h 19% 0.00in /  0mm 0.0 W/m2
00:08 64.8 °F /  18.2 °C 21.6 °F /  -5.8 °C 29.80in /  1009hPa Calm   5.0mph /  8km/h 19% 0.00in /  0mm 0.0 W/m2
00:13 65.1 °F /  18.4 °C 21.7 °F /  -5.7 °C 29.79in /  1008.7hPa Calm   7.0mph /  11.3km/h 19% 0.00in /  0mm 0.0 W/m2
00:18 65.7 °F /  18.7 °C 21.0 °F /  -6.1 °C 29.79in /  1008.7hPa Calm   4.0mph /  6.4km/h 18% 0.00in /  0mm 0.0 W/m2
00:24 66.0 °F /  18.9 °C 21.2 °F /  -6 °C 29.79in /  1008.7hPa ESE 2.9mph /  4.7km/h 7.0mph /  11.3km/h 18% 0.00in /  0mm 0.0 W/m2
00:29 66.4 °F /  19.1 °C 21.6 °F /  -5.8 °C 29.79in /  1008.7hPa Calm   1.0mph /  1.6km/h 18% 0.00in /  0mm 0.0 W/m2
00:34 66.2 °F /  19 °C 21.4 °F /  -5.9 °C 29.79in /  1008.7hPa Calm   1.0mph /  1.6km/h 18% 0.00in /  0mm 0.0 W/m2
00:39 66.0 °F /  18.9 °C 21.2 °F /  -6 °C 29.78in /  1008.4hPa Calm   3.0mph /  4.8km/h 18% 0.00in /  0mm 0.0 W/m2
00:44 65.8 °F /  18.8 °C 21.2 °F /  -6 °C 29.78in /  1008.4hPa Calm   1.0mph /  1.6km/h 18% 0.00in /  0mm 0.0 W/m2
00:49 65.5 °F /  18.6 °C 20.8 °F /  -6.2 °C 29.78in /  1008.4hPa Calm     18% 0.00in /  0mm 0.0 W/m2
00:54 65.1 °F /  18.4 °C 20.5 °F /  -6.4 °C 29.78in /  1008.4hPa Calm     18% 0.00in /  0mm 0.0 W/m2
00:59 64.8 °F /  18.2 °C 21.6 °F /  -5.8 °C 29.78in /  1008.4hPa Calm     19% 0.00in /  0mm 0.0 W/m2
01:04 64.2 °F /  17.9 °C 21.0 °F /  -6.1 °C 29.78in /  1008.4hPa Calm   1.0mph /  1.6km/h 19% 0.00in /  0mm 0.0 W/m2
01:09 63.9 °F /  17.7 °C 20.8 °F /  -6.2 °C 29.78in /  1008.4hPa Calm   2.0mph /  3.2km/h 19% 0.00in /  0mm 0.0 W/m2
01:14 63.7 °F /  17.6 °C 21.9 °F /  -5.6 °C 29.77in /  1008hPa Calm   1.0mph /  1.6km/h 20% 0.00in /  0mm 0.0 W/m2
01:20 63.3 °F /  17.4 °C 20.3 °F /  -6.5 °C 29.77in /  1008hPa Calm     19% 0.00in /  0mm 0.0 W/m2
01:25 63.0 °F /  17.2 °C 21.2 °F /  -6 °C 29.77in /  1008hPa Calm     20% 0.00in /  0mm 0.0 W/m2
01:30 62.6 °F /  17 °C 21.0 °F /  -6.1 °C 29.77in /  1008hPa Calm   2.0mph /  3.2km/h 20% 0.00in /  0mm 0.0 W/m2
01:35 62.2 °F /  16.8 °C 20.7 °F /  -6.3 °C 29.77in /  1008hPa Calm   2.0mph /  3.2km/h 20% 0.00in /  0mm 0.0 W/m2
01:40 61.9 °F /  16.6 °C 20.3 °F /  -6.5 °C 29.77in /  1008hPa Calm   2.0mph /  3.2km/h 20% 0.00in /  0mm 0.0 W/m2
01:45 61.7 °F /  16.5 °C 21.4 °F /  -5.9 °C 29.77in /  1008hPa Calm   1.0mph /  1.6km/h 21% 0.00in /  0mm 0.0 W/m2
01:50 61.3 °F /  16.3 °C 21.0 °F /  -6.1 °C 29.77in /  1008hPa Calm   3.0mph /  4.8km/h 21% 0.00in /  0mm 0.0 W/m2
01:55 61.2 °F /  16.2 °C 20.8 °F /  -6.2 °C 29.77in /  1008hPa Calm   1.0mph /  1.6km/h 21% 0.00in /  0mm 0.0 W/m2
02:01 61.0 °F /  16.1 °C 20.8 °F /  -6.2 °C 29.77in /  1008hPa Calm     21% 0.00in /  0mm 0.0 W/m2
02:07 60.6 °F /  15.9 °C 20.5 °F /  -6.4 °C 29.77in /  1008hPa East 0.9mph /  1.4km/h 1.0mph /  1.6km/h 21% 0.00in /  0mm 0.0 W/m2
02:12 60.3 °F /  15.7 °C 21.2 °F /  -6 °C 29.76in /  1007.7hPa Calm     22% 0.00in /  0mm 0.0 W/m2
02:17 60.1 °F /  15.6 °C 21.0 °F /  -6.1 °C 29.76in /  1007.7hPa Calm     22% 0.00in /  0mm 0.0 W/m2
02:22 59.7 °F /  15.4 °C 20.8 °F /  -6.2 °C 29.76in /  1007.7hPa Calm     22% 0.00in /  0mm 0.0 W/m2
02:27 59.5 °F /  15.3 °C 20.7 °F /  -6.3 °C 29.76in /  1007.7hPa Calm   2.0mph /  3.2km/h 22% 0.00in /  0mm 0.0 W/m2
02:32 59.5 °F /  15.3 °C 20.7 °F /  -6.3 °C 29.76in /  1007.7hPa Calm   1.0mph /  1.6km/h 22% 0.00in /  0mm 0.0 W/m2
02:37 59.5 °F /  15.3 °C 19.6 °F /  -6.9 °C 29.76in /  1007.7hPa Calm     21% 0.00in /  0mm 0.0 W/m2
02:42 59.5 °F /  15.3 °C 19.6 °F /  -6.9 °C 29.76in /  1007.7hPa Calm   1.0mph /  1.6km/h 21% 0.00in /  0mm 0.0 W/m2
02:48 59.5 °F /  15.3 °C 19.6 °F /  -6.9 °C 29.76in /  1007.7hPa Calm     21% 0.00in /  0mm 0.0 W/m2
02:53 59.5 °F /  15.3 °C 20.7 °F /  -6.3 °C 29.76in /  1007.7hPa Calm     22% 0.00in /  0mm 0.0 W/m2
02:58 59.5 °F /  15.3 °C 19.6 °F /  -6.9 °C 29.76in /  1007.7hPa Calm   1.0mph /  1.6km/h 21% 0.00in /  0mm 0.0 W/m2
03:03 59.4 °F /  15.2 °C 19.4 °F /  -7 °C 29.76in /  1007.7hPa Calm     21% 0.00in /  0mm 0.0 W/m2
03:08 59.4 °F /  15.2 °C 20.5 °F /  -6.4 °C 29.75in /  1007.3hPa Calm     22% 0.00in /  0mm 0.0 W/m2
03:13 59.2 °F /  15.1 °C 19.2 °F /  -7.1 °C 29.76in /  1007.7hPa Calm     21% 0.00in /  0mm 0.0 W/m2
03:18 59.2 °F /  15.1 °C 20.3 °F /  -6.5 °C 29.75in /  1007.3hPa Calm     22% 0.00in /  0mm 0.0 W/m2
03:23 58.8 °F /  14.9 °C 19.0 °F /  -7.2 °C 29.75in /  1007.3hPa Calm     21% 0.00in /  0mm 0.0 W/m2
03:29 58.8 °F /  14.9 °C 20.1 °F /  -6.6 °C 29.75in /  1007.3hPa Calm     22% 0.00in /  0mm 0.0 W/m2
03:34 58.6 °F /  14.8 °C 19.9 °F /  -6.7 °C 29.75in /  1007.3hPa Calm     22% 0.00in /  0mm 0.0 W/m2
03:39 58.5 °F /  14.7 °C 18.7 °F /  -7.4 °C 29.75in /  1007.3hPa Calm   1.0mph /  1.6km/h 21% 0.00in /  0mm 0.0 W/m2
03:44 58.5 °F /  14.7 °C 19.8 °F /  -6.8 °C 29.75in /  1007.3hPa Calm     22% 0.00in /  0mm 0.0 W/m2
03:49 58.3 °F /  14.6 °C 18.5 °F /  -7.5 °C 29.76in /  1007.7hPa Calm     21% 0.00in /  0mm 0.0 W/m2
03:54 58.3 °F /  14.6 °C 19.6 °F /  -6.9 °C 29.75in /  1007.3hPa Calm     22% 0.00in /  0mm 0.0 W/m2
03:59 58.1 °F /  14.5 °C 18.3 °F /  -7.6 °C 29.75in /  1007.3hPa Calm     21% 0.00in /  0mm 0.0 W/m2
04:04 57.9 °F /  14.4 °C 18.1 °F /  -7.7 °C 29.75in /  1007.3hPa Calm   1.0mph /  1.6km/h 21% 0.00in /  0mm 0.0 W/m2
04:09 57.7 °F /  14.3 °C 18.1 °F /  -7.7 °C 29.75in /  1007.3hPa Calm     21% 0.00in /  0mm 0.0 W/m2
04:15 57.6 °F /  14.2 °C 18.0 °F /  -7.8 °C 29.75in /  1007.3hPa Calm   1.0mph /  1.6km/h 21% 0.00in /  0mm 0.0 W/m2
04:20 57.4 °F /  14.1 °C 17.8 °F /  -7.9 °C 29.75in /  1007.3hPa Calm     21% 0.00in /  0mm 0.0 W/m2
04:25 57.4 °F /  14.1 °C 18.9 °F /  -7.3 °C 29.75in /  1007.3hPa Calm     22% 0.00in /  0mm 0.0 W/m2
04:30 57.0 °F /  13.9 °C 18.5 °F /  -7.5 °C 29.75in /  1007.3hPa Calm     22% 0.00in /  0mm 0.0 W/m2
04:35 56.8 °F /  13.8 °C 18.3 °F /  -7.6 °C 29.75in /  1007.3hPa Calm     22% 0.00in /  0mm 0.0 W/m2
04:40 56.7 °F /  13.7 °C 18.3 °F /  -7.6 °C 29.76in /  1007.7hPa Calm     22% 0.00in /  0mm 0.0 W/m2
04:45 56.5 °F /  13.6 °C 19.0 °F /  -7.2 °C 29.75in /  1007.3hPa Calm     23% 0.00in /  0mm 0.0 W/m2
04:50 55.9 °F /  13.3 °C 18.7 °F /  -7.4 °C 29.75in /  1007.3hPa Calm     23% 0.00in /  0mm 0.0 W/m2
04:55 55.8 °F /  13.2 °C 16.3 °F /  -8.7 °C 29.75in /  1007.3hPa Calm   1.0mph /  1.6km/h 21% 0.00in /  0mm 0.0 W/m2
05:00 55.6 °F /  13.1 °C 18.3 °F /  -7.6 °C 29.76in /  1007.7hPa Calm     23% 0.00in /  0mm 0.0 W/m2
05:06 55.6 °F /  13.1 °C 17.2 °F /  -8.2 °C 29.76in /  1007.7hPa Calm     22% 0.00in /  0mm 0.0 W/m2
05:13 55.2 °F /  12.9 °C 17.1 °F /  -8.3 °C 29.76in /  1007.7hPa Calm     22% 0.00in /  0mm 0.0 W/m2
05:23 55.2 °F /  12.9 °C 17.1 °F /  -8.3 °C 29.76in /  1007.7hPa Calm     22% 0.00in /  0mm 0.0 W/m2
05:24 55.2 °F /  12.9 °C 16.0 °F /  -8.9 °C 29.76in /  1007.7hPa Calm     21% 0.00in /  0mm 0.0 W/m2
05:25 55.2 °F /  12.9 °C 16.0 °F /  -8.9 °C 29.76in /  1007.7hPa Calm   1.0mph /  1.6km/h 21% 0.00in /  0mm 0.0 W/m2
05:30 55.2 °F /  12.9 °C 14.9 °F /  -9.5 °C 29.76in /  1007.7hPa Calm     20% 0.00in /  0mm 0.0 W/m2
05:31 55.4 °F /  13 °C 16.2 °F /  -8.8 °C 29.76in /  1007.7hPa Calm     21% 0.00in /  0mm 0.0 W/m2
05:34 55.4 °F /  13 °C 13.8 °F /  -10.1 °C 29.76in /  1007.7hPa Calm     19% 0.00in /  0mm 0.0 W/m2
05:36 55.6 °F /  13.1 °C 15.1 °F /  -9.4 °C 29.76in /  1007.7hPa Calm     20% 0.00in /  0mm 0.0 W/m2
05:39 55.6 °F /  13.1 °C 15.1 °F /  -9.4 °C 29.76in /  1007.7hPa Calm     20% 0.00in /  0mm 0.0 W/m2
05:45 55.6 °F /  13.1 °C 15.1 °F /  -9.4 °C 29.77in /  1008hPa Calm     20% 0.00in /  0mm 0.0 W/m2
05:46 55.6 °F /  13.1 °C 15.1 °F /  -9.4 °C 29.77in /  1008hPa Calm     20% 0.00in /  0mm 0.0 W/m2
05:51 55.2 °F /  12.9 °C 14.9 °F /  -9.5 °C 29.77in /  1008hPa Calm     20% 0.00in /  0mm 0.0 W/m2
05:56 55.2 °F /  12.9 °C 14.9 °F /  -9.5 °C 29.77in /  1008hPa Calm     20% 0.00in /  0mm 0.0 W/m2
06:01 55.0 °F /  12.8 °C 13.5 °F /  -10.3 °C 29.77in /  1008hPa Calm     19% 0.00in /  0mm 0.0 W/m2
06:06 55.0 °F /  12.8 °C 13.5 °F /  -10.3 °C 29.78in /  1008.4hPa Calm     19% 0.00in /  0mm 0.0 W/m2
06:11 55.0 °F /  12.8 °C 13.5 °F /  -10.3 °C 29.78in /  1008.4hPa Calm     19% 0.00in /  0mm 0.0 W/m2
06:16 54.9 °F /  12.7 °C 12.2 °F /  -11 °C 29.78in /  1008.4hPa NNE 0.9mph /  1.4km/h 1.0mph /  1.6km/h 18% 0.00in /  0mm 0.0 W/m2
06:21 55.0 °F /  12.8 °C 12.2 °F /  -11 °C 29.78in /  1008.4hPa Calm   2.0mph /  3.2km/h 18% 0.00in /  0mm 5.0 W/m2
06:27 55.4 °F /  13 °C 11.3 °F /  -11.5 °C 29.78in /  1008.4hPa Calm   3.0mph /  4.8km/h 17% 0.00in /  0mm 7.0 W/m2
06:32 55.8 °F /  13.2 °C 11.7 °F /  -11.3 °C 29.78in /  1008.4hPa Calm   3.0mph /  4.8km/h 17% 0.00in /  0mm 9.0 W/m2
06:37 56.5 °F /  13.6 °C 10.8 °F /  -11.8 °C 29.78in /  1008.4hPa Calm   1.0mph /  1.6km/h 16% 0.00in /  0mm 11.0 W/m2
06:42 56.8 °F /  13.8 °C 11.1 °F /  -11.6 °C 29.79in /  1008.7hPa Calm   4.0mph /  6.4km/h 16% 0.00in /  0mm 12.0 W/m2
06:47 57.0 °F /  13.9 °C 11.3 °F /  -11.5 °C 29.79in /  1008.7hPa Calm   1.0mph /  1.6km/h 16% 0.00in /  0mm 12.0 W/m2
06:52 57.6 °F /  14.2 °C 11.7 °F /  -11.3 °C 29.79in /  1008.7hPa Calm   1.0mph /  1.6km/h 16% 0.00in /  0mm 14.0 W/m2
06:58 57.7 °F /  14.3 °C 11.8 °F /  -11.2 °C 29.79in /  1008.7hPa Calm   3.0mph /  4.8km/h 16% 0.00in /  0mm 16.0 W/m2
07:03 58.3 °F /  14.6 °C 10.8 °F /  -11.8 °C 29.79in /  1008.7hPa Calm   1.0mph /  1.6km/h 15% 0.00in /  0mm 18.0 W/m2
07:09 58.6 °F /  14.8 °C 11.1 °F /  -11.6 °C 29.79in /  1008.7hPa Calm   3.0mph /  4.8km/h 15% 0.00in /  0mm 18.0 W/m2
07:14 59.2 °F /  15.1 °C 10.0 °F /  -12.2 °C 29.79in /  1008.7hPa Calm   4.0mph /  6.4km/h 14% 0.00in /  0mm 19.0 W/m2
07:19 59.7 °F /  15.4 °C 10.4 °F /  -12 °C 29.79in /  1008.7hPa East 4.0mph /  6.4km/h 5.0mph /  8km/h 14% 0.00in /  0mm 25.0 W/m2
07:24 60.4 °F /  15.8 °C 9.3 °F /  -12.6 °C 29.79in /  1008.7hPa Calm   7.0mph /  11.3km/h 13% 0.00in /  0mm 21.0 W/m2
07:29 61.3 °F /  16.3 °C 10.0 °F /  -12.2 °C 29.80in /  1009hPa East 2.0mph /  3.2km/h 5.0mph /  8km/h 13% 0.00in /  0mm 23.0 W/m2
07:34 62.1 °F /  16.7 °C 8.8 °F /  -12.9 °C 29.80in /  1009hPa SSE 6.0mph /  9.7km/h 7.0mph /  11.3km/h 12% 0.00in /  0mm 23.0 W/m2
07:40 62.8 °F /  17.1 °C 7.5 °F /  -13.6 °C 29.80in /  1009hPa Calm   5.0mph /  8km/h 11% 0.00in /  0mm 25.0 W/m2
07:45 63.3 °F /  17.4 °C 7.9 °F /  -13.4 °C 29.80in /  1009hPa ENE 0.9mph /  1.4km/h 6.0mph /  9.7km/h 11% 0.00in /  0mm 25.0 W/m2
07:50 64.0 °F /  17.8 °C 8.4 °F /  -13.1 °C 29.80in /  1009hPa Calm   8.0mph /  12.9km/h 11% 0.00in /  0mm 26.0 W/m2
07:55 64.6 °F /  18.1 °C 8.8 °F /  -12.9 °C 29.80in /  1009hPa Calm   9.0mph /  14.5km/h 11% 0.00in /  0mm 26.0 W/m2
08:01 64.9 °F /  18.3 °C 7.0 °F /  -13.9 °C 29.80in /  1009hPa SE 4.0mph /  6.4km/h 7.0mph /  11.3km/h 10% 0.00in /  0mm 28.0 W/m2
08:06 65.5 °F /  18.6 °C 7.5 °F /  -13.6 °C 29.80in /  1009hPa NE 0.9mph /  1.4km/h 9.0mph /  14.5km/h 10% 0.00in /  0mm 28.0 W/m2
08:11 65.8 °F /  18.8 °C 7.7 °F /  -13.5 °C 29.79in /  1008.7hPa NE 0.9mph /  1.4km/h 7.0mph /  11.3km/h 10% 0.00in /  0mm 30.0 W/m2
08:16 66.4 °F /  19.1 °C 8.1 °F /  -13.3 °C 29.79in /  1008.7hPa Calm   8.0mph /  12.9km/h 10% 0.00in /  0mm 32.0 W/m2
08:21 66.9 °F /  19.4 °C 8.6 °F /  -13 °C 29.79in /  1008.7hPa East 4.0mph /  6.4km/h 8.0mph /  12.9km/h 10% 0.00in /  0mm 56.0 W/m2
08:26 67.5 °F /  19.7 °C 9.0 °F /  -12.8 °C 29.79in /  1008.7hPa SE 2.9mph /  4.7km/h 9.0mph /  14.5km/h 10% 0.00in /  0mm 492.0 W/m2
08:31 67.8 °F /  19.9 °C 9.3 °F /  -12.6 °C 29.79in /  1008.7hPa Calm   6.0mph /  9.7km/h 10% 0.00in /  0mm 512.0 W/m2
08:36 68.7 °F /  20.4 °C 9.9 °F /  -12.3 °C 29.80in /  1009hPa Calm   8.0mph /  12.9km/h 10% 0.00in /  0mm 531.0 W/m2
08:41 69.8 °F /  21 °C 10.8 °F /  -11.8 °C 29.79in /  1008.7hPa ENE 4.9mph /  7.9km/h 5.0mph /  8km/h 10% 0.00in /  0mm 548.0 W/m2
08:47 70.9 °F /  21.6 °C 9.1 °F /  -12.7 °C 29.79in /  1008.7hPa NE 4.0mph /  6.4km/h 5.0mph /  8km/h 9% 0.00in /  0mm 570.0 W/m2
08:52 72.0 °F /  22.2 °C 10.0 °F /  -12.2 °C 29.79in /  1008.7hPa NE 0.9mph /  1.4km/h 5.0mph /  8km/h 9% 0.00in /  0mm 589.0 W/m2
08:57 72.7 °F /  22.6 °C 10.6 °F /  -11.9 °C 29.79in /  1008.7hPa ESE 4.0mph /  6.4km/h 5.0mph /  8km/h 9% 0.00in /  0mm 606.0 W/m2
09:02 73.6 °F /  23.1 °C 11.3 °F /  -11.5 °C 29.79in /  1008.7hPa Calm   3.0mph /  4.8km/h 9% 0.00in /  0mm 628.0 W/m2
09:07 74.5 °F /  23.6 °C 12.0 °F /  -11.1 °C 29.79in /  1008.7hPa ESE 0.9mph /  1.4km/h 5.0mph /  8km/h 9% 0.00in /  0mm 643.0 W/m2
09:12 75.0 °F /  23.9 °C 9.7 °F /  -12.4 °C 29.78in /  1008.4hPa ESE 4.9mph /  7.9km/h 6.0mph /  9.7km/h 8% 0.00in /  0mm 661.0 W/m2
09:17 75.6 °F /  24.2 °C 10.0 °F /  -12.2 °C 29.78in /  1008.4hPa East 2.0mph /  3.2km/h 8.0mph /  12.9km/h 8% 0.00in /  0mm 679.0 W/m2
09:23 76.5 °F /  24.7 °C 13.5 °F /  -10.3 °C 29.78in /  1008.4hPa NNW 2.9mph /  4.7km/h 6.0mph /  9.7km/h 9% 0.00in /  0mm 696.0 W/m2
09:28 77.4 °F /  25.2 °C 14.2 °F /  -9.9 °C 29.78in /  1008.4hPa Calm   5.0mph /  8km/h 9% 0.00in /  0mm 712.0 W/m2
09:33 78.6 °F /  25.9 °C 15.1 °F /  -9.4 °C 29.78in /  1008.4hPa NNW 4.0mph /  6.4km/h 5.0mph /  8km/h 9% 0.00in /  0mm 728.0 W/m2
09:38 79.3 °F /  26.3 °C 15.6 °F /  -9.1 °C 29.78in /  1008.4hPa Calm   7.0mph /  11.3km/h 9% 0.00in /  0mm 744.0 W/m2
09:44 79.9 °F /  26.6 °C 16.0 °F /  -8.9 °C 29.78in /  1008.4hPa NNW 0.9mph /  1.4km/h 4.0mph /  6.4km/h 9% 0.00in /  0mm 761.0 W/m2
09:49 80.4 °F /  26.9 °C 16.3 °F /  -8.7 °C 29.78in /  1008.4hPa Calm   2.0mph /  3.2km/h 9% 0.00in /  0mm 777.0 W/m2
09:54 81.0 °F /  27.2 °C 14.2 °F /  -9.9 °C 29.78in /  1008.4hPa WNW 0.9mph /  1.4km/h 7.0mph /  11.3km/h 8% 0.00in /  0mm 791.0 W/m2
09:59 81.1 °F /  27.3 °C 16.9 °F /  -8.4 °C 29.78in /  1008.4hPa NNW 2.9mph /  4.7km/h 6.0mph /  9.7km/h 9% 0.00in /  0mm 803.0 W/m2
10:04 81.3 °F /  27.4 °C 14.4 °F /  -9.8 °C 29.78in /  1008.4hPa WNW 0.9mph /  1.4km/h 5.0mph /  8km/h 8% 0.00in /  0mm 816.0 W/m2
10:10 81.7 °F /  27.6 °C 14.7 °F /  -9.6 °C 29.77in /  1008hPa Calm   5.0mph /  8km/h 8% 0.00in /  0mm 830.0 W/m2
10:15 81.7 °F /  27.6 °C 14.7 °F /  -9.6 °C 29.77in /  1008hPa NNW 4.0mph /  6.4km/h 9.0mph /  14.5km/h 8% 0.00in /  0mm 842.0 W/m2
10:20 81.9 °F /  27.7 °C 14.7 °F /  -9.6 °C 29.77in /  1008hPa Calm   7.0mph /  11.3km/h 8% 0.00in /  0mm 858.0 W/m2
10:26 82.0 °F /  27.8 °C 14.9 °F /  -9.5 °C 29.77in /  1008hPa North 8.1mph /  13km/h 9.0mph /  14.5km/h 8% 0.00in /  0mm 872.0 W/m2
10:31 82.6 °F /  28.1 °C 15.3 °F /  -9.3 °C 29.77in /  1008hPa NNW 8.1mph /  13km/h 9.0mph /  14.5km/h 8% 0.00in /  0mm 888.0 W/m2
10:36 82.8 °F /  28.2 °C 15.4 °F /  -9.2 °C 29.77in /  1008hPa Calm   8.0mph /  12.9km/h 8% 0.00in /  0mm 895.0 W/m2
10:42 83.3 °F /  28.5 °C 15.8 °F /  -9 °C 29.77in /  1008hPa North 4.0mph /  6.4km/h 11.0mph /  17.7km/h 8% 0.00in /  0mm 909.0 W/m2
10:47 83.8 °F /  28.8 °C 16.3 °F /  -8.7 °C 29.77in /  1008hPa NNW 2.9mph /  4.7km/h 13.0mph /  20.9km/h 8% 0.00in /  0mm 919.0 W/m2
10:52 84.2 °F /  29 °C 16.5 °F /  -8.6 °C 29.77in /  1008hPa NNE 0.9mph /  1.4km/h 11.0mph /  17.7km/h 8% 0.00in /  0mm 930.0 W/m2
10:58 84.6 °F /  29.2 °C 16.9 °F /  -8.4 °C 29.77in /  1008hPa NW 8.1mph /  13km/h 14.0mph /  22.5km/h 8% 0.00in /  0mm 946.0 W/m2
11:03 84.6 °F /  29.2 °C 16.9 °F /  -8.4 °C 29.76in /  1007.7hPa NNE 4.9mph /  7.9km/h 13.0mph /  20.9km/h 8% 0.00in /  0mm 949.0 W/m2
11:08 84.7 °F /  29.3 °C 16.9 °F /  -8.4 °C 29.77in /  1008hPa North 4.0mph /  6.4km/h 13.0mph /  20.9km/h 8% 0.00in /  0mm 956.0 W/m2
11:14 85.3 °F /  29.6 °C 17.2 °F /  -8.2 °C 29.76in /  1007.7hPa Calm   11.0mph /  17.7km/h 8% 0.00in /  0mm 967.0 W/m2
11:19 85.3 °F /  29.6 °C 17.2 °F /  -8.2 °C 29.76in /  1007.7hPa NNW 2.9mph /  4.7km/h 11.0mph /  17.7km/h 8% 0.00in /  0mm 976.0 W/m2
11:24 85.3 °F /  29.6 °C 17.2 °F /  -8.2 °C 29.76in /  1007.7hPa NNW 8.9mph /  14.3km/h 11.0mph /  17.7km/h 8% 0.00in /  0mm 984.0 W/m2
11:29 85.5 °F /  29.7 °C 17.4 °F /  -8.1 °C 29.76in /  1007.7hPa Calm   11.0mph /  17.7km/h 8% 0.00in /  0mm 986.0 W/m2
11:34 85.8 °F /  29.9 °C 17.8 °F /  -7.9 °C 29.76in /  1007.7hPa NNE 2.0mph /  3.2km/h 13.0mph /  20.9km/h 8% 0.00in /  0mm 991.0 W/m2
11:40 86.0 °F /  30 °C 17.8 °F /  -7.9 °C 29.76in /  1007.7hPa North 2.9mph /  4.7km/h 10.0mph /  16.1km/h 8% 0.00in /  0mm 1005.0 W/m2
11:45 86.4 °F /  30.2 °C 15.1 °F /  -9.4 °C 29.75in /  1007.3hPa NNW 4.0mph /  6.4km/h 9.0mph /  14.5km/h 7% 0.00in /  0mm 1004.0 W/m2
11:50 86.2 °F /  30.1 °C 14.9 °F /  -9.5 °C 29.75in /  1007.3hPa NW 6.0mph /  9.7km/h 12.0mph /  19.3km/h 7% 0.00in /  0mm 1009.0 W/m2
11:56 86.4 °F /  30.2 °C 15.1 °F /  -9.4 °C 29.75in /  1007.3hPa NW 6.9mph /  11.1km/h 14.0mph /  22.5km/h 7% 0.00in /  0mm 1018.0 W/m2
12:01 86.4 °F /  30.2 °C 15.1 °F /  -9.4 °C 29.75in /  1007.3hPa NNW 2.9mph /  4.7km/h 13.0mph /  20.9km/h 7% 0.00in /  0mm 1018.0 W/m2
12:06 86.5 °F /  30.3 °C 15.3 °F /  -9.3 °C 29.75in /  1007.3hPa NNW 2.0mph /  3.2km/h 11.0mph /  17.7km/h 7% 0.00in /  0mm 1021.0 W/m2
12:12 86.7 °F /  30.4 °C 11.8 °F /  -11.2 °C 29.74in /  1007hPa NNW 2.9mph /  4.7km/h 9.0mph /  14.5km/h 6% 0.00in /  0mm 1023.0 W/m2
12:17 87.1 °F /  30.6 °C 12.0 °F /  -11.1 °C 29.74in /  1007hPa WNW 4.9mph /  7.9km/h 7.0mph /  11.3km/h 6% 0.00in /  0mm 1028.0 W/m2
12:22 87.6 °F /  30.9 °C 12.4 °F /  -10.9 °C 29.74in /  1007hPa West 2.9mph /  4.7km/h 8.0mph /  12.9km/h 6% 0.00in /  0mm 1028.0 W/m2
12:28 88.2 °F /  31.2 °C 12.9 °F /  -10.6 °C 29.74in /  1007hPa NW 10.1mph /  16.3km/h 12.0mph /  19.3km/h 6% 0.00in /  0mm 1028.0 W/m2
12:33 88.2 °F /  31.2 °C 12.9 °F /  -10.6 °C 29.73in /  1006.7hPa NW 4.0mph /  6.4km/h 6.0mph /  9.7km/h 6% 0.00in /  0mm 1028.0 W/m2
12:38 88.3 °F /  31.3 °C 12.9 °F /  -10.6 °C 29.73in /  1006.7hPa NNW 10.1mph /  16.3km/h 12.0mph /  19.3km/h 6% 0.00in /  0mm 1027.0 W/m2
12:44 88.7 °F /  31.5 °C 13.3 °F /  -10.4 °C 29.73in /  1006.7hPa NNW 2.9mph /  4.7km/h 11.0mph /  17.7km/h 6% 0.00in /  0mm 1030.0 W/m2
12:49 88.7 °F /  31.5 °C 13.3 °F /  -10.4 °C 29.72in /  1006.3hPa NW 4.0mph /  6.4km/h 12.0mph /  19.3km/h 6% 0.00in /  0mm 1027.0 W/m2
12:54 88.7 °F /  31.5 °C 13.3 °F /  -10.4 °C 29.72in /  1006.3hPa NNW 4.9mph /  7.9km/h 9.0mph /  14.5km/h 6% 0.00in /  0mm 1021.0 W/m2
12:59 89.1 °F /  31.7 °C 13.5 °F /  -10.3 °C 29.72in /  1006.3hPa WNW 0.9mph /  1.4km/h 15.0mph /  24.1km/h 6% 0.00in /  0mm 1023.0 W/m2
13:04 89.6 °F /  32 °C 9.7 °F /  -12.4 °C 29.72in /  1006.3hPa SW 2.9mph /  4.7km/h 13.0mph /  20.9km/h 5% 0.00in /  0mm 1020.0 W/m2
13:10 89.6 °F /  32 °C 13.8 °F /  -10.1 °C 29.72in /  1006.3hPa North 0.9mph /  1.4km/h 4.0mph /  6.4km/h 6% 0.00in /  0mm 1011.0 W/m2
13:15 90.1 °F /  32.3 °C 10.2 °F /  -12.1 °C 29.71in /  1006hPa NW 2.9mph /  4.7km/h 9.0mph /  14.5km/h 5% 0.00in /  0mm 1011.0 W/m2
13:20 90.3 °F /  32.4 °C 10.2 °F /  -12.1 °C 29.71in /  1006hPa NW 4.0mph /  6.4km/h 14.0mph /  22.5km/h 5% 0.00in /  0mm 1002.0 W/m2
13:26 90.3 °F /  32.4 °C 10.2 °F /  -12.1 °C 29.71in /  1006hPa NW 4.9mph /  7.9km/h 12.0mph /  19.3km/h 5% 0.00in /  0mm 995.0 W/m2
13:31 90.3 °F /  32.4 °C 10.2 °F /  -12.1 °C 29.70in /  1005.6hPa Calm   10.0mph /  16.1km/h 5% 0.00in /  0mm 991.0 W/m2
13:36 90.5 °F /  32.5 °C 10.4 °F /  -12 °C 29.71in /  1006hPa North 4.9mph /  7.9km/h 16.0mph /  25.7km/h 5% 0.00in /  0mm 983.0 W/m2
13:42 91.0 °F /  32.8 °C 10.8 °F /  -11.8 °C 29.70in /  1005.6hPa West 4.9mph /  7.9km/h 11.0mph /  17.7km/h 5% 0.00in /  0mm 976.0 W/m2
13:47 91.0 °F /  32.8 °C 10.8 °F /  -11.8 °C 29.70in /  1005.6hPa WNW 4.0mph /  6.4km/h 10.0mph /  16.1km/h 5% 0.00in /  0mm 967.0 W/m2
13:52 91.0 °F /  32.8 °C 10.8 °F /  -11.8 °C 29.70in /  1005.6hPa WSW 10.1mph /  16.3km/h 12.0mph /  19.3km/h 5% 0.00in /  0mm 958.0 W/m2
13:58 91.6 °F /  33.1 °C 15.3 °F /  -9.3 °C 29.70in /  1005.6hPa NW 2.0mph /  3.2km/h 14.0mph /  22.5km/h 6% 0.00in /  0mm 946.0 W/m2
14:03 91.8 °F /  33.2 °C 15.4 °F /  -9.2 °C 29.69in /  1005.3hPa West 2.0mph /  3.2km/h 7.0mph /  11.3km/h 6% 0.00in /  0mm 942.0 W/m2
14:08 92.1 °F /  33.4 °C 11.5 °F /  -11.4 °C 29.69in /  1005.3hPa NNW 6.0mph /  9.7km/h 12.0mph /  19.3km/h 5% 0.00in /  0mm 928.0 W/m2
14:13 91.9 °F /  33.3 °C 11.5 °F /  -11.4 °C 29.69in /  1005.3hPa West 6.0mph /  9.7km/h 12.0mph /  19.3km/h 5% 0.00in /  0mm 923.0 W/m2
14:18 91.9 °F /  33.3 °C 15.6 °F /  -9.1 °C 29.69in /  1005.3hPa WNW 6.9mph /  11.1km/h 14.0mph /  22.5km/h 6% 0.00in /  0mm 909.0 W/m2
14:24 91.9 °F /  33.3 °C 11.5 °F /  -11.4 °C 29.69in /  1005.3hPa West 8.9mph /  14.3km/h 13.0mph /  20.9km/h 5% 0.00in /  0mm 904.0 W/m2
14:29 91.8 °F /  33.2 °C 11.3 °F /  -11.5 °C 29.68in /  1005hPa WSW 2.9mph /  4.7km/h 13.0mph /  20.9km/h 5% 0.00in /  0mm 889.0 W/m2
14:34 91.2 °F /  32.9 °C 15.1 °F /  -9.4 °C 29.68in /  1005hPa NW 8.1mph /  13km/h 8.1mph /  13km/h 6% 0.00in /  0mm 879.0 W/m2
14:40 91.6 °F /  33.1 °C 11.1 °F /  -11.6 °C 29.68in /  1005hPa WNW 2.9mph /  4.7km/h 17.0mph /  27.4km/h 5% 0.00in /  0mm 861.0 W/m2
14:45 91.8 °F /  33.2 °C 11.3 °F /  -11.5 °C 29.67in /  1004.6hPa SW 12.1mph /  19.5km/h 13.0mph /  20.9km/h 5% 0.00in /  0mm 856.0 W/m2
14:50 91.6 °F /  33.1 °C 11.1 °F /  -11.6 °C 29.67in /  1004.6hPa WNW 2.9mph /  4.7km/h 12.0mph /  19.3km/h 5% 0.00in /  0mm 846.0 W/m2
14:56 91.8 °F /  33.2 °C 11.3 °F /  -11.5 °C 29.67in /  1004.6hPa West 13.0mph /  20.9km/h 13.0mph /  20.9km/h 5% 0.00in /  0mm 830.0 W/m2
15:01 92.1 °F /  33.4 °C 11.5 °F /  -11.4 °C 29.67in /  1004.6hPa NW 12.1mph /  19.5km/h 15.0mph /  24.1km/h 5% 0.00in /  0mm 812.0 W/m2
15:06 92.5 °F /  33.6 °C 11.8 °F /  -11.2 °C 29.66in /  1004.3hPa NW 6.9mph /  11.1km/h 13.0mph /  20.9km/h 5% 0.00in /  0mm 795.0 W/m2
15:12 92.5 °F /  33.6 °C 11.8 °F /  -11.2 °C 29.67in /  1004.6hPa WNW 4.9mph /  7.9km/h 9.0mph /  14.5km/h 5% 0.00in /  0mm 779.0 W/m2
15:17 92.7 °F /  33.7 °C 11.8 °F /  -11.2 °C 29.66in /  1004.3hPa West 2.0mph /  3.2km/h 11.0mph /  17.7km/h 5% 0.00in /  0mm 763.0 W/m2
15:22 92.5 °F /  33.6 °C 11.8 °F /  -11.2 °C 29.66in /  1004.3hPa West 6.9mph /  11.1km/h 21.0mph /  33.8km/h 5% 0.00in /  0mm 754.0 W/m2
15:28 91.9 °F /  33.3 °C 11.5 °F /  -11.4 °C 29.66in /  1004.3hPa WSW 8.1mph /  13km/h 16.0mph /  25.7km/h 5% 0.00in /  0mm 729.0 W/m2
15:33 92.1 °F /  33.4 °C 11.5 °F /  -11.4 °C 29.66in /  1004.3hPa NW 4.0mph /  6.4km/h 10.0mph /  16.1km/h 5% 0.00in /  0mm 710.0 W/m2
15:38 92.5 °F /  33.6 °C 11.8 °F /  -11.2 °C 29.66in /  1004.3hPa NW 11.0mph /  17.7km/h 15.0mph /  24.1km/h 5% 0.00in /  0mm 694.0 W/m2
15:43 92.3 °F /  33.5 °C 11.7 °F /  -11.3 °C 29.66in /  1004.3hPa NNW 4.0mph /  6.4km/h 15.0mph /  24.1km/h 5% 0.00in /  0mm 689.0 W/m2
15:48 92.1 °F /  33.4 °C 11.5 °F /  -11.4 °C 29.66in /  1004.3hPa WNW 4.0mph /  6.4km/h 13.0mph /  20.9km/h 5% 0.00in /  0mm 675.0 W/m2
15:54 91.9 °F /  33.3 °C 11.5 °F /  -11.4 °C 29.66in /  1004.3hPa WNW 10.1mph /  16.3km/h 13.0mph /  20.9km/h 5% 0.00in /  0mm 659.0 W/m2
15:59 91.6 °F /  33.1 °C 11.1 °F /  -11.6 °C 29.66in /  1004.3hPa WSW 2.9mph /  4.7km/h 9.0mph /  14.5km/h 5% 0.00in /  0mm 631.0 W/m2
16:04 91.6 °F /  33.1 °C 11.1 °F /  -11.6 °C 29.66in /  1004.3hPa NW 4.9mph /  7.9km/h 15.0mph /  24.1km/h 5% 0.00in /  0mm 626.0 W/m2
16:10 91.2 °F /  32.9 °C 10.9 °F /  -11.7 °C 29.65in /  1003.9hPa WNW 2.9mph /  4.7km/h 11.0mph /  17.7km/h 5% 0.00in /  0mm 598.0 W/m2
16:15 91.6 °F /  33.1 °C 11.1 °F /  -11.6 °C 29.65in /  1003.9hPa WNW 2.9mph /  4.7km/h 6.0mph /  9.7km/h 5% 0.00in /  0mm 577.0 W/m2
16:20 91.8 °F /  33.2 °C 11.3 °F /  -11.5 °C 29.65in /  1003.9hPa WNW 6.9mph /  11.1km/h 10.0mph /  16.1km/h 5% 0.00in /  0mm 557.0 W/m2
16:26 91.6 °F /  33.1 °C 11.1 °F /  -11.6 °C 29.65in /  1003.9hPa West 11.0mph /  17.7km/h 11.0mph /  17.7km/h 5% 0.00in /  0mm 534.0 W/m2
16:31 91.4 °F /  33 °C 10.9 °F /  -11.7 °C 29.65in /  1003.9hPa West 4.9mph /  7.9km/h 12.0mph /  19.3km/h 5% 0.00in /  0mm 517.0 W/m2
16:36 91.0 °F /  32.8 °C 10.8 °F /  -11.8 °C 29.65in /  1003.9hPa WNW 8.9mph /  14.3km/h 9.0mph /  14.5km/h 5% 0.00in /  0mm 490.0 W/m2
16:42 90.7 °F /  32.6 °C 14.7 °F /  -9.6 °C 29.65in /  1003.9hPa West 2.9mph /  4.7km/h 9.0mph /  14.5km/h 6% 0.00in /  0mm 469.0 W/m2
16:47 90.7 °F /  32.6 °C 14.7 °F /  -9.6 °C 29.65in /  1003.9hPa West 8.1mph /  13km/h 10.0mph /  16.1km/h 6% 0.00in /  0mm 457.0 W/m2
16:52 90.3 °F /  32.4 °C 14.4 °F /  -9.8 °C 29.65in /  1003.9hPa WNW 11.0mph /  17.7km/h 14.0mph /  22.5km/h 6% 0.00in /  0mm 436.0 W/m2
16:57 90.0 °F /  32.2 °C 14.2 °F /  -9.9 °C 29.65in /  1003.9hPa NNE 2.9mph /  4.7km/h 11.0mph /  17.7km/h 6% 0.00in /  0mm 413.0 W/m2
17:02 90.1 °F /  32.3 °C 10.2 °F /  -12.1 °C 29.66in /  1004.3hPa NW 4.9mph /  7.9km/h 9.0mph /  14.5km/h 5% 0.00in /  0mm 403.0 W/m2
17:08 90.0 °F /  32.2 °C 14.2 °F /  -9.9 °C 29.66in /  1004.3hPa West 6.9mph /  11.1km/h 12.0mph /  19.3km/h 6% 0.00in /  0mm 381.0 W/m2
17:13 89.2 °F /  31.8 °C 13.6 °F /  -10.2 °C 29.66in /  1004.3hPa NW 2.9mph /  4.7km/h 15.0mph /  24.1km/h 6% 0.00in /  0mm 360.0 W/m2
17:18 88.9 °F /  31.6 °C 13.3 °F /  -10.4 °C 29.66in /  1004.3hPa WNW 4.0mph /  6.4km/h 10.0mph /  16.1km/h 6% 0.00in /  0mm 329.0 W/m2
17:24 88.5 °F /  31.4 °C 13.1 °F /  -10.5 °C 29.66in /  1004.3hPa WSW 2.9mph /  4.7km/h 11.0mph /  17.7km/h 6% 0.00in /  0mm 304.0 W/m2
17:29 88.0 °F /  31.1 °C 12.7 °F /  -10.7 °C 29.66in /  1004.3hPa WNW 10.1mph /  16.3km/h 15.0mph /  24.1km/h 6% 0.00in /  0mm 287.0 W/m2
17:34 87.3 °F /  30.7 °C 15.6 °F /  -9.1 °C 29.66in /  1004.3hPa West 8.1mph /  13km/h 14.0mph /  22.5km/h 7% 0.00in /  0mm 262.0 W/m2
17:40 86.7 °F /  30.4 °C 15.3 °F /  -9.3 °C 29.66in /  1004.3hPa West 8.9mph /  14.3km/h 14.0mph /  22.5km/h 7% 0.00in /  0mm 239.0 W/m2
17:45 86.4 °F /  30.2 °C 15.1 °F /  -9.4 °C 29.67in /  1004.6hPa WNW 4.9mph /  7.9km/h 7.0mph /  11.3km/h 7% 0.00in /  0mm 220.0 W/m2
17:51 86.4 °F /  30.2 °C 15.1 °F /  -9.4 °C 29.67in /  1004.6hPa WNW 2.9mph /  4.7km/h 9.0mph /  14.5km/h 7% 0.00in /  0mm 197.0 W/m2
17:56 86.4 °F /  30.2 °C 15.1 °F /  -9.4 °C 29.67in /  1004.6hPa NW 6.0mph /  9.7km/h 11.0mph /  17.7km/h 7% 0.00in /  0mm 178.0 W/m2
18:01 86.2 °F /  30.1 °C 14.9 °F /  -9.5 °C 29.67in /  1004.6hPa West 0.9mph /  1.4km/h 7.0mph /  11.3km/h 7% 0.00in /  0mm 158.0 W/m2
18:06 86.0 °F /  30 °C 14.7 °F /  -9.6 °C 29.68in /  1005hPa SSW 6.0mph /  9.7km/h 11.0mph /  17.7km/h 7% 0.00in /  0mm 135.0 W/m2
18:11 84.9 °F /  29.4 °C 14.0 °F /  -10 °C 29.68in /  1005hPa WNW 12.1mph /  19.5km/h 13.0mph /  20.9km/h 7% 0.00in /  0mm 109.0 W/m2
18:16 84.4 °F /  29.1 °C 13.6 °F /  -10.2 °C 29.69in /  1005.3hPa West 10.1mph /  16.3km/h 14.0mph /  22.5km/h 7% 0.00in /  0mm 95.0 W/m2
18:22 83.8 °F /  28.8 °C 13.3 °F /  -10.4 °C 29.69in /  1005.3hPa WSW 2.9mph /  4.7km/h 13.0mph /  20.9km/h 7% 0.00in /  0mm 63.0 W/m2
18:27 83.5 °F /  28.6 °C 12.9 °F /  -10.6 °C 29.70in /  1005.6hPa WNW 8.9mph /  14.3km/h 9.0mph /  14.5km/h 7% 0.00in /  0mm 51.0 W/m2
18:33 82.8 °F /  28.2 °C 20.7 °F /  -6.3 °C 29.70in /  1005.6hPa WSW 6.9mph /  11.1km/h 14.0mph /  22.5km/h 10% 0.00in /  0mm 35.0 W/m2
18:38 82.0 °F /  27.8 °C 20.1 °F /  -6.6 °C 29.70in /  1005.6hPa West 6.0mph /  9.7km/h 8.0mph /  12.9km/h 10% 0.00in /  0mm 21.0 W/m2
18:43 81.3 °F /  27.4 °C 19.6 °F /  -6.9 °C 29.70in /  1005.6hPa West 10.1mph /  16.3km/h 10.1mph /  16.3km/h 10% 0.00in /  0mm 14.0 W/m2
18:48 80.8 °F /  27.1 °C 21.4 °F /  -5.9 °C 29.71in /  1006hPa WNW 8.1mph /  13km/h 9.0mph /  14.5km/h 11% 0.00in /  0mm 9.0 W/m2
18:54 80.1 °F /  26.7 °C 20.8 °F /  -6.2 °C 29.71in /  1006hPa West 8.1mph /  13km/h 9.0mph /  14.5km/h 11% 0.00in /  0mm 0.0 W/m2
18:59 79.7 °F /  26.5 °C 20.5 °F /  -6.4 °C 29.71in /  1006hPa SW 6.0mph /  9.7km/h 6.0mph /  9.7km/h 11% 0.00in /  0mm 0.0 W/m2
19:04 79.2 °F /  26.2 °C 20.1 °F /  -6.6 °C 29.72in /  1006.3hPa WSW 2.9mph /  4.7km/h 9.0mph /  14.5km/h 11% 0.00in /  0mm 0.0 W/m2
19:09 78.6 °F /  25.9 °C 21.7 °F /  -5.7 °C 29.72in /  1006.3hPa NW 2.9mph /  4.7km/h 7.0mph /  11.3km/h 12% 0.00in /  0mm 0.0 W/m2
19:14 78.3 °F /  25.7 °C 25.2 °F /  -3.8 °C 29.72in /  1006.3hPa South 2.0mph /  3.2km/h 10.0mph /  16.1km/h 14% 0.00in /  0mm 0.0 W/m2
19:19 77.5 °F /  25.3 °C 26.2 °F /  -3.2 °C 29.72in /  1006.3hPa WSW 4.9mph /  7.9km/h 5.0mph /  8km/h 15% 0.00in /  0mm 0.0 W/m2
19:25 76.6 °F /  24.8 °C 27.1 °F /  -2.7 °C 29.73in /  1006.7hPa West 6.0mph /  9.7km/h 8.0mph /  12.9km/h 16% 0.00in /  0mm 0.0 W/m2
19:30 76.1 °F /  24.5 °C 26.6 °F /  -3 °C 29.73in /  1006.7hPa Calm   6.0mph /  9.7km/h 16% 0.00in /  0mm 0.0 W/m2
19:35 75.6 °F /  24.2 °C 27.7 °F /  -2.4 °C 29.73in /  1006.7hPa Calm   5.0mph /  8km/h 17% 0.00in /  0mm 0.0 W/m2
19:40 75.2 °F /  24 °C 27.3 °F /  -2.6 °C 29.74in /  1007hPa Calm   4.0mph /  6.4km/h 17% 0.00in /  0mm 0.0 W/m2
19:46 74.7 °F /  23.7 °C 27.0 °F /  -2.8 °C 29.74in /  1007hPa WSW 4.9mph /  7.9km/h 9.0mph /  14.5km/h 17% 0.00in /  0mm 0.0 W/m2
19:52 74.1 °F /  23.4 °C 27.9 °F /  -2.3 °C 29.74in /  1007hPa West 2.0mph /  3.2km/h 5.0mph /  8km/h 18% 0.00in /  0mm 0.0 W/m2
19:57 73.6 °F /  23.1 °C 28.8 °F /  -1.8 °C 29.74in /  1007hPa WSW 2.9mph /  4.7km/h 5.0mph /  8km/h 19% 0.00in /  0mm 0.0 W/m2
20:02 73.0 °F /  22.8 °C 28.4 °F /  -2 °C 29.74in /  1007hPa Calm   5.0mph /  8km/h 19% 0.00in /  0mm 0.0 W/m2
20:08 72.7 °F /  22.6 °C 28.0 °F /  -2.2 °C 29.75in /  1007.3hPa NW 4.0mph /  6.4km/h 5.0mph /  8km/h 19% 0.00in /  0mm 0.0 W/m2
20:13 72.1 °F /  22.3 °C 28.8 °F /  -1.8 °C 29.75in /  1007.3hPa WNW 0.9mph /  1.4km/h 3.0mph /  4.8km/h 20% 0.00in /  0mm 0.0 W/m2
20:18 72.0 °F /  22.2 °C 28.8 °F /  -1.8 °C 29.75in /  1007.3hPa West 0.9mph /  1.4km/h 1.0mph /  1.6km/h 20% 0.00in /  0mm 0.0 W/m2
20:23 71.6 °F /  22 °C 29.7 °F /  -1.3 °C 29.75in /  1007.3hPa Calm   1.0mph /  1.6km/h 21% 0.00in /  0mm 0.0 W/m2
20:28 71.2 °F /  21.8 °C 29.3 °F /  -1.5 °C 29.76in /  1007.7hPa NW 0.9mph /  1.4km/h 1.0mph /  1.6km/h 21% 0.00in /  0mm 0.0 W/m2
20:34 71.1 °F /  21.7 °C 29.1 °F /  -1.6 °C 29.76in /  1007.7hPa Calm   1.0mph /  1.6km/h 21% 0.00in /  0mm 0.0 W/m2
20:40 70.7 °F /  21.5 °C 30.0 °F /  -1.1 °C 29.76in /  1007.7hPa Calm     22% 0.00in /  0mm 0.0 W/m2
20:45 70.5 °F /  21.4 °C 29.8 °F /  -1.2 °C 29.76in /  1007.7hPa Calm     22% 0.00in /  0mm 0.0 W/m2
20:51 70.2 °F /  21.2 °C 29.5 °F /  -1.4 °C 29.76in /  1007.7hPa Calm   2.0mph /  3.2km/h 22% 0.00in /  0mm 0.0 W/m2
20:56 70.0 °F /  21.1 °C 30.6 °F /  -0.8 °C 29.76in /  1007.7hPa Calm   3.0mph /  4.8km/h 23% 0.00in /  0mm 0.0 W/m2
21:01 69.6 °F /  20.9 °C 30.2 °F /  -1 °C 29.76in /  1007.7hPa Calm   3.0mph /  4.8km/h 23% 0.00in /  0mm 0.0 W/m2
21:06 69.4 °F /  20.8 °C 30.0 °F /  -1.1 °C 29.76in /  1007.7hPa Calm   2.0mph /  3.2km/h 23% 0.00in /  0mm 0.0 W/m2
21:11 69.3 °F /  20.7 °C 30.9 °F /  -0.6 °C 29.76in /  1007.7hPa Calm   2.0mph /  3.2km/h 24% 0.00in /  0mm 0.0 W/m2
21:16 69.1 °F /  20.6 °C 30.7 °F /  -0.7 °C 29.76in /  1007.7hPa Calm     24% 0.00in /  0mm 0.0 W/m2
21:21 68.7 °F /  20.4 °C 30.4 °F /  -0.9 °C 29.76in /  1007.7hPa Calm     24% 0.00in /  0mm 0.0 W/m2
21:27 68.5 °F /  20.3 °C 30.4 °F /  -0.9 °C 29.77in /  1008hPa Calm     24% 0.00in /  0mm 0.0 W/m2
21:32 68.4 °F /  20.2 °C 30.2 °F /  -1 °C 29.77in /  1008hPa Calm     24% 0.00in /  0mm 0.0 W/m2
21:37 68.2 °F /  20.1 °C 30.0 °F /  -1.1 °C 29.77in /  1008hPa Calm     24% 0.00in /  0mm 0.0 W/m2
21:42 68.0 °F /  20 °C 30.9 °F /  -0.6 °C 29.78in /  1008.4hPa Calm     25% 0.00in /  0mm 0.0 W/m2
21:47 67.6 °F /  19.8 °C 30.6 °F /  -0.8 °C 29.78in /  1008.4hPa Calm     25% 0.00in /  0mm 0.0 W/m2
21:52 67.5 °F /  19.7 °C 30.4 °F /  -0.9 °C 29.78in /  1008.4hPa Calm     25% 0.00in /  0mm 0.0 W/m2
21:57 67.1 °F /  19.5 °C 30.0 °F /  -1.1 °C 29.78in /  1008.4hPa Calm     25% 0.00in /  0mm 0.0 W/m2
22:02 66.7 °F /  19.3 °C 29.8 °F /  -1.2 °C 29.78in /  1008.4hPa Calm     25% 0.00in /  0mm 0.0 W/m2
22:07 66.4 °F /  19.1 °C 29.5 °F /  -1.4 °C 29.78in /  1008.4hPa Calm     25% 0.00in /  0mm 0.0 W/m2
22:13 65.8 °F /  18.8 °C 30.0 °F /  -1.1 °C 29.78in /  1008.4hPa Calm     26% 0.00in /  0mm 0.0 W/m2
22:19 65.3 °F /  18.5 °C 29.5 °F /  -1.4 °C 29.79in /  1008.7hPa Calm     26% 0.00in /  0mm 0.0 W/m2
22:24 64.9 °F /  18.3 °C 29.3 °F /  -1.5 °C 29.79in /  1008.7hPa Calm     26% 0.00in /  0mm 0.0 W/m2
22:29 64.6 °F /  18.1 °C 28.9 °F /  -1.7 °C 29.79in /  1008.7hPa Calm     26% 0.00in /  0mm 0.0 W/m2
22:34 64.2 °F /  17.9 °C 29.5 °F /  -1.4 °C 29.79in /  1008.7hPa Calm     27% 0.00in /  0mm 0.0 W/m2
22:39 63.9 °F /  17.7 °C 29.3 °F /  -1.5 °C 29.79in /  1008.7hPa Calm     27% 0.00in /  0mm 0.0 W/m2
22:44 63.7 °F /  17.6 °C 29.1 °F /  -1.6 °C 29.79in /  1008.7hPa Calm     27% 0.00in /  0mm 0.0 W/m2
22:50 63.3 °F /  17.4 °C 29.7 °F /  -1.3 °C 29.80in /  1009hPa Calm     28% 0.00in /  0mm 0.0 W/m2
22:56 63.1 °F /  17.3 °C 29.5 °F /  -1.4 °C 29.80in /  1009hPa Calm     28% 0.00in /  0mm 0.0 W/m2
23:01 63.0 °F /  17.2 °C 29.3 °F /  -1.5 °C 29.80in /  1009hPa Calm     28% 0.00in /  0mm 0.0 W/m2
23:06 62.8 °F /  17.1 °C 28.2 °F /  -2.1 °C 29.80in /  1009hPa Calm     27% 0.00in /  0mm 0.0 W/m2
23:11 62.4 °F /  16.9 °C 28.9 °F /  -1.7 °C 29.80in /  1009hPa Calm     28% 0.00in /  0mm 0.0 W/m2
23:16 62.2 °F /  16.8 °C 28.8 °F /  -1.8 °C 29.80in /  1009hPa Calm     28% 0.00in /  0mm 0.0 W/m2
23:21 61.9 °F /  16.6 °C 28.4 °F /  -2 °C 29.80in /  1009hPa Calm     28% 0.00in /  0mm 0.0 W/m2
23:26 61.5 °F /  16.4 °C 28.9 °F /  -1.7 °C 29.80in /  1009hPa Calm     29% 0.00in /  0mm 0.0 W/m2
23:31 61.3 °F /  16.3 °C 28.8 °F /  -1.8 °C 29.80in /  1009hPa Calm     29% 0.00in /  0mm 0.0 W/m2
23:36 61.0 °F /  16.1 °C 28.6 °F /  -1.9 °C 29.80in /  1009hPa Calm     29% 0.00in /  0mm 0.0 W/m2
23:41 60.6 °F /  15.9 °C 28.2 °F /  -2.1 °C 29.80in /  1009hPa Calm     29% 0.00in /  0mm 0.0 W/m2
23:47 60.3 °F /  15.7 °C 27.9 °F /  -2.3 °C 29.80in /  1009hPa Calm     29% 0.00in /  0mm 0.0 W/m2
23:52 60.1 °F /  15.6 °C 28.6 °F /  -1.9 °C 29.80in /  1009hPa Calm     30% 0.00in /  0mm 0.0 W/m2
23:58 59.7 °F /  15.4 °C 27.3 °F /  -2.6 °C 29.80in /  1009hPa Calm     29% 0.00in /  0mm 0.0 W/m2
Olympia, Windhoek, Namibia
Compliments of Weather Underground - 3.25 mb